Neder Vindinge, Denmark
Current Conditions -  °F | °C
As of 12:20 AM on Thursday 18 Dec 2014 (Local Time) from EKRK Reporting Station
Haze Haze  
Wind Chill:   Ceiling: 600
Heat Index:   Visibility: 1.4mi
Dew Point:   Wind: 6mph
Humidity: 100%   Direction: 180°S
Pressure: 29.56"   Gusts: NA
Location:  55.03°N, 11.88°E
Report Text: EKRK 172320Z AUTO 18005KT 2300NDV BR FEW004/// BKN006///BKN019/// 03/03 Q1001
Loading
Personal Weather Stations






























Interactive Weather Map New forecast layout! Learn more

10-Day Weather Forecast

Advertisements
Track Severe Weather on mobile